Time;durP1;ratioP1;P1;durP2;ratioP2;P2;SDS_P1;SDS_P2;PMS_P1;PMS_P2;Temp;Humidity;BMP_temperature;BMP_pressure;BME280_temperature;BME280_humidity;BME280_pressure;Samples;Min_cycle;Max_cycle;Signal;HPM_P1;HPM_P2
2022/12/07 00:01:41;;;;;;;11.85;8.07;;;5.80;99.90;;;;;;5052881;28;20025;-69
2022/12/07 00:04:10;;;;;;;15.40;9.20;;;5.80;99.90;;;;;;5052130;28;20425;-70
2022/12/07 00:06:44;;;;;;;10.70;8.15;;;5.80;99.90;;;;;;5053018;28;20033;-70
2022/12/07 00:09:12;;;;;;;12.75;7.60;;;5.80;99.90;;;;;;5052387;28;20036;-70
2022/12/07 00:11:38;;;;;;;13.40;7.57;;;5.80;99.90;;;;;;5052814;28;20052;-69
2022/12/07 00:14:06;;;;;;;12.38;8.35;;;5.80;99.90;;;;;;5052834;28;20067;-70
2022/12/07 00:16:34;;;;;;;9.90;7.68;;;5.80;99.90;;;;;;5051956;28;20048;-69
2022/12/07 00:19:00;;;;;;;10.27;7.97;;;5.80;99.90;;;;;;5051383;28;20438;-70
2022/12/07 00:21:29;;;;;;;10.52;7.60;;;5.80;99.90;;;;;;5052117;28;20107;-69
2022/12/07 00:23:56;;;;;;;10.98;8.00;;;5.80;99.90;;;;;;5052467;28;20021;-69
2022/12/07 00:26:24;;;;;;;14.10;8.88;;;5.80;99.90;;;;;;5050830;28;20119;-69
2022/12/07 00:28:52;;;;;;;11.63;8.70;;;5.80;99.90;;;;;;5052514;28;20031;-68
2022/12/07 00:31:19;;;;;;;12.40;8.90;;;5.80;99.90;;;;;;5051633;28;20119;-69
2022/12/07 00:33:45;;;;;;;10.93;8.02;;;5.80;99.90;;;;;;5052088;28;20435;-68
2022/12/07 00:36:14;;;;;;;11.88;8.52;;;5.80;99.90;;;;;;5050224;28;20056;-69
2022/12/07 00:38:40;;;;;;;11.93;8.75;;;5.80;99.90;;;;;;5052421;28;20604;-69
2022/12/07 00:41:17;;;;;;;14.18;9.73;;;5.80;99.90;;;;;;5052229;28;20433;-69
2022/12/07 00:43:44;;;;;;;14.23;9.02;;;5.80;99.90;;;;;;5052154;28;20021;-69
2022/12/07 00:46:11;;;;;;;13.02;9.05;;;5.80;99.90;;;;;;5051753;28;20043;-70
2022/12/07 00:48:37;;;;;;;12.48;8.55;;;5.80;99.90;;;;;;5052054;28;20492;-69
2022/12/07 00:51:04;;;;;;;15.02;9.70;;;5.80;99.90;;;;;;5055524;28;20461;-69
2022/12/07 00:53:30;;;;;;;12.48;9.88;;;5.70;99.90;;;;;;5058185;28;20481;-69
2022/12/07 00:55:56;;;;;;;13.27;9.82;;;5.80;99.90;;;;;;5058589;28;20025;-68
2022/12/07 00:58:22;;;;;;;12.77;9.85;;;5.70;99.90;;;;;;5058074;28;20051;-69
2022/12/07 01:00:48;;;;;;;13.25;10.88;;;5.70;99.90;;;;;;5058490;28;20021;-68
2022/12/07 01:03:15;;;;;;;15.82;10.57;;;5.80;99.90;;;;;;5057107;28;20035;-68
2022/12/07 01:05:53;;;;;;;13.93;9.95;;;5.80;99.90;;;;;;5058772;28;20040;-69
2022/12/07 01:08:19;;;;;;;15.27;11.25;;;5.70;99.90;;;;;;5058360;28;20044;-69
2022/12/07 01:10:45;;;;;;;13.38;10.13;;;5.70;99.90;;;;;;5058829;28;20505;-68
2022/12/07 01:13:10;;;;;;;14.82;11.30;;;5.70;99.90;;;;;;5058857;28;20104;-69
2022/12/07 01:15:42;;;;;;;15.52;11.13;;;5.70;99.90;;;;;;5058619;28;20105;-70
2022/12/07 01:18:08;;;;;;;15.43;10.57;;;5.70;99.90;;;;;;5058922;28;20040;-68
2022/12/07 01:20:34;;;;;;;16.02;11.50;;;5.70;99.90;;;;;;5057140;28;20031;-70
2022/12/07 01:23:00;;;;;;;15.05;11.02;;;5.60;99.90;;;;;;5058570;28;20029;-70
2022/12/07 01:25:26;;;;;;;16.23;11.52;;;5.70;99.90;;;;;;5058094;28;20032;-70
2022/12/07 01:27:51;;;;;;;14.43;10.52;;;5.60;99.90;;;;;;5058443;28;20489;-70
2022/12/07 01:30:17;;;;;;;17.00;11.40;;;5.70;99.90;;;;;;5058243;28;20035;-69
2022/12/07 01:32:43;;;;;;;15.52;11.50;;;5.60;99.90;;;;;;5058740;28;20072;-70
2022/12/07 01:35:08;;;;;;;17.15;12.23;;;5.60;99.90;;;;;;5058578;28;20521;-69
2022/12/07 01:37:35;;;;;;;16.25;12.07;;;5.60;99.90;;;;;;5058498;28;20052;-70
2022/12/07 01:40:02;;;;;;;15.93;11.90;;;5.60;99.90;;;;;;5058566;28;20029;-70
2022/12/07 01:42:28;;;;;;;16.08;12.30;;;5.60;99.90;;;;;;5058058;28;20037;-70
2022/12/07 01:45:18;;;;;;;17.25;12.55;;;5.60;99.90;;;;;;5058238;28;20025;-69
2022/12/07 01:47:50;;;;;;;19.55;12.63;;;5.60;99.90;;;;;;5058329;28;20189;-69
2022/12/07 01:50:16;;;;;;;17.50;12.20;;;5.60;99.90;;;;;;5057926;28;20104;-70
2022/12/07 01:52:43;;;;;;;19.33;13.02;;;5.60;99.90;;;;;;5058304;28;20409;-69
2022/12/07 01:55:13;;;;;;;18.30;13.45;;;5.60;99.90;;;;;;5058239;28;20073;-69
2022/12/07 01:57:47;;;;;;;19.70;13.65;;;5.60;99.90;;;;;;5057709;28;20028;-69
2022/12/07 02:00:13;;;;;;;19.85;13.73;;;5.60;99.90;;;;;;5058640;28;20124;-69
2022/12/07 02:03:08;;;;;;;18.83;13.45;;;5.60;99.90;;;;;;5055050;28;20553;-69
2022/12/07 02:05:36;;;;;;;20.45;14.00;;;5.60;99.90;;;;;;5034799;28;20029;-69
2022/12/07 02:08:03;;;;;;;18.10;13.07;;;5.60;99.90;;;;;;5035030;28;20065;-70
2022/12/07 02:10:31;;;;;;;20.15;14.05;;;5.60;99.90;;;;;;5034875;28;20041;-70
2022/12/07 02:13:03;;;;;;;18.73;13.15;;;5.60;99.90;;;;;;5034948;28;20040;-69
2022/12/07 02:15:41;;;;;;;19.63;13.55;;;5.60;99.90;;;;;;5034549;28;20026;-70
2022/12/07 02:18:19;;;;;;;20.23;13.82;;;5.50;99.90;;;;;;5035030;28;20475;-69
2022/12/07 02:20:58;;;;;;;19.40;13.25;;;5.60;99.90;;;;;;5035471;28;20021;-69
2022/12/07 02:23:30;;;;;;;18.40;13.05;;;5.50;99.90;;;;;;5034624;28;20045;-70
2022/12/07 02:26:40;;;;;;;20.17;13.43;;;5.50;99.90;;;;;;5035032;28;20051;-70
2022/12/07 02:29:24;;;;;;;18.90;12.93;;;5.50;99.90;;;;;;5018966;28;20064;-69
2022/12/07 02:32:07;;;;;;;17.35;12.18;;;5.50;99.90;;;;;;5035012;28;20021;-69
2022/12/07 02:35:11;;;;;;;18.13;13.35;;;5.50;99.90;;;;;;5033099;28;20151;-70
2022/12/07 02:38:06;;;;;;;20.33;13.25;;;5.50;99.90;;;;;;4976061;28;20462;-70
2022/12/07 02:40:39;;;;;;;19.38;12.60;;;5.50;99.90;;;;;;4992614;28;20489;-68
2022/12/07 02:43:20;;;;;;;19.23;12.95;;;5.50;99.90;;;;;;5022430;28;20125;-69
2022/12/07 02:45:47;;;;;;;19.52;13.05;;;5.50;99.90;;;;;;5034237;28;20021;-69
2022/12/07 02:48:16;;;;;;;18.73;13.35;;;5.40;99.90;;;;;;5053189;28;20029;-68
2022/12/07 02:50:50;;;;;;;22.17;13.10;;;5.50;99.90;;;;;;5053671;28;20025;-69
2022/12/07 02:53:48;;;;;;;19.60;12.68;;;5.40;99.90;;;;;;5054291;28;20040;-69
2022/12/07 02:56:37;;;;;;;19.95;12.85;;;5.50;99.90;;;;;;5053610;28;20127;-68
2022/12/07 02:59:25;;;;;;;19.85;14.00;;;5.40;99.90;;;;;;5049767;28;20033;-68
2022/12/07 03:02:15;;;;;;;18.55;12.82;;;5.40;99.90;;;;;;5054357;28;20036;-68
2022/12/07 03:05:05;;;;;;;20.08;13.60;;;5.40;99.90;;;;;;5053364;28;20087;-69
2022/12/07 03:07:49;;;;;;;17.80;11.77;;;5.40;99.90;;;;;;5053307;28;20037;-69
2022/12/07 03:10:26;;;;;;;18.58;12.95;;;5.40;99.90;;;;;;5053776;28;20033;-69
2022/12/07 03:13:28;;;;;;;18.63;12.38;;;5.40;99.90;;;;;;5054044;28;20029;-69
2022/12/07 03:16:09;;;;;;;16.90;11.77;;;5.50;99.90;;;;;;5053818;28;20025;-69
2022/12/07 03:18:40;;;;;;;19.58;12.55;;;5.50;99.90;;;;;;5053190;28;20123;-68
2022/12/07 03:21:12;;;;;;;19.30;12.70;;;5.50;99.90;;;;;;5053664;28;20029;-69
2022/12/07 03:23:43;;;;;;;19.33;12.23;;;5.40;99.90;;;;;;5053101;28;20040;-69
2022/12/07 03:26:13;;;;;;;19.15;12.90;;;5.40;99.90;;;;;;5053598;28;20024;-68
2022/12/07 03:28:46;;;;;;;18.88;12.38;;;5.40;99.90;;;;;;5053015;28;20061;-69
2022/12/07 03:31:29;;;;;;;17.42;12.15;;;5.40;99.90;;;;;;5053437;28;20040;-70
2022/12/07 03:33:55;;;;;;;17.20;11.52;;;5.40;99.90;;;;;;5053448;28;20130;-70
2022/12/07 03:36:28;;;;;;;16.45;11.45;;;5.40;99.90;;;;;;5053393;28;20163;-69
2022/12/07 03:39:02;;;;;;;19.27;11.98;;;5.40;99.90;;;;;;5053301;28;20327;-70
2022/12/07 03:41:32;;;;;;;16.60;11.77;;;5.40;99.90;;;;;;5052862;28;20041;-69
2022/12/07 03:43:59;;;;;;;17.13;11.98;;;5.40;99.90;;;;;;5053162;28;20078;-70
2022/12/07 03:46:44;;;;;;;18.30;11.60;;;5.50;99.90;;;;;;5053228;28;20136;-70
2022/12/07 03:49:21;;;;;;;17.67;11.77;;;5.40;99.90;;;;;;5053192;28;20025;-69
2022/12/07 03:52:06;;;;;;;17.00;11.45;;;5.50;99.90;;;;;;5052367;28;20079;-69
2022/12/07 03:54:38;;;;;;;17.42;11.23;;;5.40;99.90;;;;;;5053827;28;20033;-69
2022/12/07 03:57:05;;;;;;;18.30;11.43;;;5.50;99.90;;;;;;5061323;28;20042;-68
2022/12/07 03:59:31;;;;;;;14.25;10.27;;;5.40;99.90;;;;;;5063477;28;20028;-69
2022/12/07 04:02:03;;;;;;;14.80;10.15;;;5.40;99.90;;;;;;5072727;28;20352;-68
2022/12/07 04:04:29;;;;;;;15.30;9.93;;;5.40;99.90;;;;;;5053180;28;20028;-68
2022/12/07 04:06:54;;;;;;;15.63;9.90;;;5.40;99.90;;;;;;5053089;28;20033;-69
2022/12/07 04:09:20;;;;;;;17.02;10.90;;;5.40;99.90;;;;;;5052330;28;20084;-69
2022/12/07 04:11:46;;;;;;;14.13;10.00;;;5.40;99.90;;;;;;5052165;28;20061;-70
2022/12/07 04:14:20;;;;;;;13.48;9.75;;;5.40;99.90;;;;;;5052482;28;20025;-70
2022/12/07 04:16:47;;;;;;;15.32;9.85;;;5.40;99.90;;;;;;5052353;28;20063;-70
2022/12/07 04:19:13;;;;;;;14.88;10.52;;;5.40;99.90;;;;;;5052566;28;20102;-69
2022/12/07 04:21:39;;;;;;;15.50;10.30;;;5.40;99.90;;;;;;5052002;28;20056;-69
2022/12/07 04:24:05;;;;;;;13.82;9.98;;;5.40;99.90;;;;;;5052406;28;20052;-69
2022/12/07 04:26:30;;;;;;;14.02;9.63;;;5.40;99.90;;;;;;5051108;28;20037;-69
2022/12/07 04:28:56;;;;;;;16.38;9.43;;;5.40;99.90;;;;;;5052660;28;20100;-69
2022/12/07 04:31:22;;;;;;;13.88;9.77;;;5.40;99.90;;;;;;5052457;28;20033;-69
2022/12/07 04:33:47;;;;;;;12.32;10.05;;;5.40;99.90;;;;;;5051794;28;20454;-70
2022/12/07 04:36:13;;;;;;;15.38;9.90;;;5.50;99.90;;;;;;5052062;28;20045;-69
2022/12/07 04:38:39;;;;;;;13.45;9.07;;;5.40;99.90;;;;;;5051386;28;20458;-69
2022/12/07 04:41:06;;;;;;;14.82;9.70;;;5.40;99.90;;;;;;5052463;28;20033;-69
2022/12/07 04:43:32;;;;;;;14.00;9.30;;;5.40;99.90;;;;;;5051553;28;20036;-70
2022/12/07 04:45:58;;;;;;;13.20;8.75;;;5.40;99.90;;;;;;5052112;28;20037;-69
2022/12/07 04:48:23;;;;;;;13.15;8.68;;;5.40;99.90;;;;;;5052244;28;20037;-69
2022/12/07 04:50:49;;;;;;;13.60;8.65;;;5.40;99.90;;;;;;5051539;28;20057;-69
2022/12/07 04:53:15;;;;;;;14.15;9.32;;;5.40;99.90;;;;;;5052175;28;20021;-69
2022/12/07 04:55:41;;;;;;;13.80;9.15;;;5.40;99.90;;;;;;5051961;28;20028;-68
2022/12/07 04:58:07;;;;;;;13.45;9.13;;;5.40;99.90;;;;;;5052307;28;20409;-69
2022/12/07 05:00:32;;;;;;;14.18;8.45;;;5.40;99.90;;;;;;5051092;28;20029;-70
2022/12/07 05:02:58;;;;;;;11.65;8.45;;;5.40;99.90;;;;;;5050982;28;20391;-70
2022/12/07 05:05:24;;;;;;;15.07;9.95;;;5.40;99.90;;;;;;5051425;28;20021;-69
2022/12/07 05:07:50;;;;;;;16.13;9.52;;;5.50;99.90;;;;;;5051546;28;20423;-70
2022/12/07 05:10:15;;;;;;;15.25;9.65;;;5.40;99.90;;;;;;5052125;28;20025;-70
2022/12/07 05:12:41;;;;;;;13.05;9.23;;;5.50;99.90;;;;;;5051527;28;20040;-70
2022/12/07 05:15:07;;;;;;;14.68;9.50;;;5.40;99.90;;;;;;5050794;28;20369;-69
2022/12/07 05:17:33;;;;;;;13.48;9.23;;;5.50;99.90;;;;;;5051718;28;20051;-70
2022/12/07 05:19:58;;;;;;;12.63;8.63;;;5.40;99.90;;;;;;5051944;28;20029;-70
2022/12/07 05:22:27;;;;;;;14.77;8.43;;;5.50;99.90;;;;;;5051994;28;20025;-70
2022/12/07 05:24:54;;;;;;;13.68;9.07;;;5.40;99.90;;;;;;5049805;28;20025;-69
2022/12/07 05:27:20;;;;;;;11.07;8.18;;;5.50;99.90;;;;;;5051940;28;20040;-68
2022/12/07 05:29:45;;;;;;;13.25;9.20;;;5.50;99.90;;;;;;5050834;28;20025;-68
2022/12/07 05:32:11;;;;;;;13.05;8.95;;;5.50;99.90;;;;;;5051323;28;20102;-68
2022/12/07 05:34:37;;;;;;;12.15;8.30;;;5.50;99.90;;;;;;5051032;28;20032;-69
2022/12/07 05:37:02;;;;;;;10.90;7.95;;;5.50;99.90;;;;;;5051588;28;20060;-69
2022/12/07 05:39:28;;;;;;;11.20;8.02;;;5.50;99.90;;;;;;5055313;28;20383;-70
2022/12/07 05:42:12;;;;;;;12.15;8.30;;;5.50;99.90;;;;;;5055013;28;20458;-70
2022/12/07 05:44:38;;;;;;;12.95;7.90;;;5.50;99.90;;;;;;5055410;28;20047;-70
2022/12/07 05:47:04;;;;;;;11.35;7.63;;;5.50;99.90;;;;;;5055232;28;20025;-70
2022/12/07 05:49:30;;;;;;;12.13;8.35;;;5.60;99.90;;;;;;5054993;28;20166;-69
2022/12/07 05:51:55;;;;;;;14.68;8.23;;;5.60;99.90;;;;;;5054698;28;20025;-70
2022/12/07 05:54:21;;;;;;;11.18;7.03;;;5.50;99.90;;;;;;5055229;28;20373;-70
2022/12/07 05:56:47;;;;;;;10.95;7.35;;;5.50;99.90;;;;;;5054839;28;20090;-70
2022/12/07 05:59:26;;;;;;;12.02;7.47;;;5.50;99.90;;;;;;5055224;28;20029;-70
2022/12/07 06:02:13;;;;;;;11.45;7.50;;;5.50;99.90;;;;;;5054900;28;20033;-70
2022/12/07 06:04:44;;;;;;;11.45;7.25;;;5.60;99.90;;;;;;5054702;28;20033;-70
2022/12/07 06:07:11;;;;;;;12.70;7.38;;;5.60;99.90;;;;;;5055024;28;20041;-69
2022/12/07 06:09:37;;;;;;;14.57;7.25;;;5.60;99.90;;;;;;5075179;28;20085;-70
2022/12/07 06:14:47;;;;;;;11.63;7.75;;;5.60;99.90;;;;;;5074403;28;20106;-70
2022/12/07 06:17:14;;;;;;;9.80;7.18;;;5.60;99.90;;;;;;5075069;28;20029;-70
2022/12/07 06:19:40;;;;;;;12.30;7.70;;;5.60;99.90;;;;;;5074591;28;20039;-70
2022/12/07 06:22:06;;;;;;;12.05;7.32;;;5.60;99.90;;;;;;5075026;28;20021;-70
2022/12/07 06:24:32;;;;;;;14.90;8.32;;;5.60;99.90;;;;;;5074783;28;20465;-69
2022/12/07 06:26:58;;;;;;;12.30;7.28;;;5.60;99.90;;;;;;5073748;28;20406;-69
2022/12/07 06:29:24;;;;;;;11.63;7.30;;;5.60;99.90;;;;;;5074908;28;20108;-70
2022/12/07 06:31:50;;;;;;;11.15;7.88;;;5.60;99.90;;;;;;5074130;28;20111;-70
2022/12/07 06:34:18;;;;;;;12.23;7.03;;;5.60;99.90;;;;;;5074626;28;20020;-69
2022/12/07 06:36:44;;;;;;;14.15;7.70;;;5.60;99.90;;;;;;5074108;28;20358;-70
2022/12/07 06:39:11;;;;;;;10.00;7.15;;;5.60;99.90;;;;;;5074218;28;20100;-69
2022/12/07 06:41:38;;;;;;;13.00;7.53;;;5.60;99.90;;;;;;5063899;28;20033;-69
2022/12/07 06:44:07;;;;;;;9.32;6.60;;;5.60;99.90;;;;;;5054114;28;20027;-70
2022/12/07 06:46:35;;;;;;;14.80;7.30;;;5.60;99.90;;;;;;5054058;28;20032;-69
2022/12/07 06:49:00;;;;;;;11.80;7.65;;;5.60;99.90;;;;;;5053139;28;20099;-69
2022/12/07 06:51:26;;;;;;;13.38;7.43;;;5.60;99.90;;;;;;5054458;28;20021;-69
2022/12/07 06:53:52;;;;;;;19.15;8.13;;;5.60;99.90;;;;;;5053801;28;20454;-70
2022/12/07 06:56:17;;;;;;;13.27;7.55;;;5.60;99.90;;;;;;5054092;28;20423;-70
2022/12/07 06:58:43;;;;;;;10.27;6.38;;;5.60;99.90;;;;;;5053853;28;20029;-69
2022/12/07 07:01:13;;;;;;;11.18;6.65;;;5.60;99.90;;;;;;5053758;28;20070;-68
2022/12/07 07:03:39;;;;;;;12.63;7.43;;;5.60;99.90;;;;;;5054065;28;20028;-69
2022/12/07 07:06:07;;;;;;;10.20;6.45;;;5.60;99.90;;;;;;5053386;28;20037;-69
2022/12/07 07:08:33;;;;;;;10.88;6.50;;;5.60;99.90;;;;;;5053724;28;20124;-68
2022/12/07 07:10:59;;;;;;;9.48;6.13;;;5.60;99.90;;;;;;5052276;28;20040;-69
2022/12/07 07:13:24;;;;;;;10.00;6.50;;;5.70;99.90;;;;;;5053900;28;20033;-69
2022/12/07 07:15:50;;;;;;;11.15;7.32;;;5.60;99.90;;;;;;5053347;28;20064;-69
2022/12/07 07:18:16;;;;;;;10.02;6.65;;;5.60;99.90;;;;;;5053783;28;20030;-70
2022/12/07 07:20:41;;;;;;;11.90;7.00;;;5.70;99.90;;;;;;5053571;28;20029;-69
2022/12/07 07:23:07;;;;;;;14.80;7.32;;;5.70;99.90;;;;;;5053236;28;20021;-69
2022/12/07 07:25:33;;;;;;;10.48;6.63;;;5.70;99.90;;;;;;5053735;28;20139;-69
2022/12/07 07:27:59;;;;;;;11.43;8.32;;;5.70;99.90;;;;;;5053233;28;20036;-69
2022/12/07 07:30:25;;;;;;;9.00;6.00;;;5.70;99.90;;;;;;5053621;28;20365;-70
2022/12/07 07:32:51;;;;;;;10.23;6.63;;;5.70;99.90;;;;;;5053486;28;20537;-69
2022/12/07 07:35:16;;;;;;;9.55;6.28;;;5.70;99.90;;;;;;5053526;28;20100;-69
2022/12/07 07:37:42;;;;;;;7.82;6.20;;;5.70;99.90;;;;;;5052109;28;20067;-70
2022/12/07 07:40:09;;;;;;;9.88;6.05;;;5.70;99.90;;;;;;5052741;28;20071;-70
2022/12/07 07:42:34;;;;;;;8.52;5.88;;;5.70;99.90;;;;;;5053376;28;20033;-70
2022/12/07 07:45:00;;;;;;;10.20;6.10;;;5.80;99.90;;;;;;5052665;28;20084;-70
2022/12/07 07:47:26;;;;;;;8.70;5.60;;;5.80;99.90;;;;;;5052992;28;20374;-70
2022/12/07 07:49:51;;;;;;;8.85;5.88;;;5.80;99.90;;;;;;5052675;28;20036;-71
2022/12/07 07:52:17;;;;;;;8.73;6.05;;;5.80;99.90;;;;;;5052867;28;20025;-70
2022/12/07 07:54:42;;;;;;;10.02;6.15;;;5.80;99.90;;;;;;5053110;28;20017;-68
2022/12/07 07:57:08;;;;;;;10.27;6.18;;;5.80;99.90;;;;;;5052215;28;20060;-69
2022/12/07 07:59:34;;;;;;;10.48;6.80;;;5.80;99.80;;;;;;5052439;28;20025;-69
2022/12/07 08:01:59;;;;;;;9.50;6.22;;;5.80;99.70;;;;;;5051491;28;20058;-69
2022/12/07 08:04:25;;;;;;;8.95;6.18;;;5.80;99.80;;;;;;5052621;28;20058;-69
2022/12/07 08:06:51;;;;;;;11.63;6.55;;;5.80;99.90;;;;;;5052388;28;20354;-70
2022/12/07 08:09:17;;;;;;;11.35;7.03;;;5.90;99.90;;;;;;5052812;28;20029;-68
2022/12/07 08:11:42;;;;;;;11.90;6.60;;;5.90;99.80;;;;;;5052683;28;20029;-69
2022/12/07 08:14:10;;;;;;;9.50;6.13;;;5.90;99.60;;;;;;5051804;28;20035;-69
2022/12/07 08:16:35;;;;;;;11.05;5.43;;;5.80;99.60;;;;;;5052006;28;20034;-70
2022/12/07 08:19:01;;;;;;;7.55;5.45;;;5.90;99.50;;;;;;5052058;28;20075;-71
2022/12/07 08:21:27;;;;;;;8.65;5.75;;;5.80;99.40;;;;;;5052497;28;20029;-70
2022/12/07 08:23:53;;;;;;;9.15;5.95;;;5.80;99.70;;;;;;5052017;28;20187;-68
2022/12/07 08:26:18;;;;;;;14.10;6.22;;;5.80;99.90;;;;;;5052400;28;20127;-69
2022/12/07 08:28:45;;;;;;;9.45;5.75;;;5.80;99.90;;;;;;5052415;28;20100;-70
2022/12/07 08:31:13;;;;;;;8.63;6.25;;;5.90;99.90;;;;;;5052199;28;20116;-70
2022/12/07 08:33:40;;;;;;;11.07;6.13;;;5.90;99.90;;;;;;5052345;28;20098;-70
2022/12/07 08:36:08;;;;;;;9.95;6.15;;;5.90;99.90;;;;;;5051844;28;20145;-69
2022/12/07 08:38:36;;;;;;;10.05;5.65;;;5.90;99.90;;;;;;5054085;28;20075;-69
2022/12/07 08:41:01;;;;;;;7.18;5.55;;;5.90;99.90;;;;;;5053647;28;20032;-69
2022/12/07 08:43:27;;;;;;;8.57;5.68;;;5.90;99.90;;;;;;5054783;28;20021;-69
2022/12/07 08:46:25;;;;;;;9.13;5.53;;;6.00;98.80;;;;;;5054317;28;20017;-69
2022/12/07 08:49:08;;;;;;;7.15;5.22;;;6.00;98.50;;;;;;5054607;28;20477;-70
2022/12/07 08:51:34;;;;;;;8.30;5.13;;;5.90;97.80;;;;;;5053830;28;20021;-69
2022/12/07 08:54:03;;;;;;;6.85;4.78;;;5.90;96.90;;;;;;5052908;28;20070;-69
2022/12/07 08:56:29;;;;;;;8.02;4.63;;;6.00;96.50;;;;;;5052975;28;20028;-69
2022/12/07 08:58:55;;;;;;;7.95;5.97;;;6.00;96.40;;;;;;5051798;28;20382;-70
2022/12/07 09:01:21;;;;;;;7.95;5.68;;;6.00;96.00;;;;;;5052367;28;20021;-69
2022/12/07 09:03:46;;;;;;;7.63;4.93;;;6.00;96.00;;;;;;5052389;28;20025;-69
2022/12/07 09:06:12;;;;;;;7.47;5.50;;;6.00;95.20;;;;;;5051797;28;20029;-71
2022/12/07 09:08:45;;;;;;;6.68;5.47;;;6.00;94.90;;;;;;5052099;28;20036;-69
2022/12/07 09:11:11;;;;;;;6.55;5.07;;;6.00;95.00;;;;;;5051521;28;20035;-70
2022/12/07 09:13:36;;;;;;;7.70;5.30;;;6.10;94.30;;;;;;5056043;28;20104;-70
2022/12/07 09:16:02;;;;;;;8.23;4.68;;;6.00;94.00;;;;;;5055737;28;20025;-70
2022/12/07 09:18:28;;;;;;;9.18;4.82;;;6.10;93.70;;;;;;5056369;28;20045;-70
2022/12/07 09:20:54;;;;;;;7.72;5.43;;;6.10;93.10;;;;;;5055763;28;20033;-69
2022/12/07 09:23:19;;;;;;;8.05;4.97;;;6.10;92.90;;;;;;5055936;28;20067;-69
2022/12/07 09:25:45;;;;;;;8.35;5.30;;;6.10;92.50;;;;;;5055951;28;20039;-69
2022/12/07 09:28:10;;;;;;;6.05;4.70;;;6.10;92.30;;;;;;5055344;28;20033;-69
2022/12/07 09:30:36;;;;;;;6.28;5.25;;;6.00;92.00;;;;;;5055624;28;20029;-70
2022/12/07 09:33:02;;;;;;;6.50;5.13;;;5.90;91.90;;;;;;5055398;28;20029;-69
2022/12/07 09:35:28;;;;;;;7.97;5.75;;;5.90;92.00;;;;;;5055572;28;20515;-70
2022/12/07 09:37:53;;;;;;;8.40;5.45;;;5.90;91.90;;;;;;5055805;28;20025;-68
2022/12/07 09:40:21;;;;;;;7.93;5.63;;;5.90;92.30;;;;;;5055228;28;20032;-70
2022/12/07 09:42:51;;;;;;;8.05;5.80;;;5.80;92.50;;;;;;5055551;28;20035;-69
2022/12/07 09:45:29;;;;;;;6.90;5.65;;;5.90;92.60;;;;;;5055185;28;20031;-69
2022/12/07 09:47:54;;;;;;;9.10;5.93;;;5.90;92.80;;;;;;5055374;28;20104;-70
2022/12/07 09:50:24;;;;;;;8.63;5.50;;;5.90;93.10;;;;;;5055012;28;20040;-70
2022/12/07 09:52:50;;;;;;;7.15;6.00;;;6.00;92.30;;;;;;5055306;28;20029;-69
2022/12/07 09:55:26;;;;;;;6.93;5.65;;;6.10;91.90;;;;;;5054755;28;20798;-70
2022/12/07 09:57:52;;;;;;;8.55;5.50;;;6.30;91.70;;;;;;5055148;28;20032;-70
2022/12/07 10:00:21;;;;;;;6.65;5.75;;;6.40;91.50;;;;;;5055028;28;20083;-70
2022/12/07 10:02:50;;;;;;;8.02;6.10;;;6.40;91.20;;;;;;5055231;28;20025;-69
2022/12/07 10:05:23;;;;;;;13.38;6.13;;;6.40;91.10;;;;;;5054581;28;20083;-70
2022/12/07 10:07:49;;;;;;;9.63;6.25;;;6.50;90.60;;;;;;5055236;28;20025;-68
2022/12/07 10:10:38;;;;;;;8.60;6.10;;;6.60;90.50;;;;;;5054917;28;20036;-71
2022/12/07 10:13:06;;;;;;;9.80;6.07;;;6.80;89.30;;;;;;5054844;28;20116;-70
2022/12/07 10:15:53;;;;;;;7.35;5.22;;;6.90;88.00;;;;;;5053919;28;20466;-69
2022/12/07 10:18:35;;;;;;;9.15;5.32;;;7.00;87.00;;;;;;5054509;28;20044;-69
2022/12/07 10:21:25;;;;;;;6.65;5.40;;;7.10;86.10;;;;;;5054218;28;20127;-70
2022/12/07 10:24:16;;;;;;;6.45;5.53;;;7.20;84.10;;;;;;5054168;28;20094;-69
2022/12/07 10:26:45;;;;;;;7.30;5.25;;;7.30;83.60;;;;;;5054795;28;20025;-69
2022/12/07 10:29:13;;;;;;;6.72;5.22;;;7.40;82.00;;;;;;5054379;28;20112;-70
2022/12/07 10:31:40;;;;;;;6.75;4.97;;;7.50;80.90;;;;;;5054803;28;20423;-70
2022/12/07 10:34:22;;;;;;;6.60;4.63;;;7.50;78.90;;;;;;5054624;28;20413;-70
2022/12/07 10:36:47;;;;;;;8.35;4.88;;;7.60;77.20;;;;;;5054464;28;20053;-70
2022/12/07 10:39:20;;;;;;;7.45;5.40;;;7.60;76.90;;;;;;5053955;28;20037;-69
2022/12/07 10:42:24;;;;;;;8.35;5.22;;;7.60;77.20;;;;;;5054680;28;20029;-69
2022/12/07 10:45:09;;;;;;;7.28;5.50;;;7.60;75.70;;;;;;5047821;28;20052;-69
2022/12/07 10:47:58;;;;;;;7.50;5.07;;;7.60;76.10;;;;;;5054500;28;20029;-69
2022/12/07 10:50:49;;;;;;;11.70;5.60;;;7.50;75.80;;;;;;5054071;28;20463;-69
2022/12/07 10:53:32;;;;;;;7.28;5.57;;;7.40;76.30;;;;;;5053887;28;20029;-70
2022/12/07 10:56:09;;;;;;;9.93;6.47;;;7.30;76.00;;;;;;5054034;28;20481;-70
2022/12/07 10:58:46;;;;;;;8.45;5.90;;;7.20;76.60;;;;;;5054063;28;20111;-70
2022/12/07 11:01:49;;;;;;;7.28;5.65;;;6.90;77.60;;;;;;5053997;28;20025;-71
2022/12/07 11:04:42;;;;;;;8.43;6.22;;;6.80;79.00;;;;;;5053370;28;20421;-69
2022/12/07 11:07:22;;;;;;;7.05;5.63;;;6.70;79.70;;;;;;5053426;28;20033;-70
2022/12/07 11:10:10;;;;;;;8.30;6.10;;;6.60;79.70;;;;;;5054156;28;20378;-69
2022/12/07 11:13:10;;;;;;;8.15;5.93;;;6.50;81.00;;;;;;5050115;28;20045;-69
2022/12/07 11:16:17;;;;;;;10.85;6.60;;;6.50;82.20;;;;;;5053607;28;20454;-69
2022/12/07 11:18:52;;;;;;;9.55;7.07;;;6.40;82.20;;;;;;5053163;28;20484;-70
2022/12/07 11:21:44;;;;;;;9.02;7.05;;;6.40;82.50;;;;;;5052733;28;20481;-69
2022/12/07 11:24:20;;;;;;;10.43;6.65;;;6.40;83.50;;;;;;5052819;28;20096;-69
2022/12/07 11:26:45;;;;;;;8.65;6.32;;;6.40;83.20;;;;;;5052980;28;20474;-69
2022/12/07 11:29:30;;;;;;;7.60;6.28;;;6.40;82.90;;;;;;5052840;28;20051;-70
2022/12/07 11:32:04;;;;;;;12.10;6.97;;;6.40;82.30;;;;;;5053384;28;20029;-69
2022/12/07 11:34:57;;;;;;;10.60;7.72;;;6.40;82.20;;;;;;5053247;28;20025;-69
2022/12/07 11:37:29;;;;;;;7.45;5.95;;;6.40;81.50;;;;;;5052854;28;20088;-69
2022/12/07 11:40:05;;;;;;;6.63;5.25;;;6.40;80.90;;;;;;5052850;28;20028;-69
2022/12/07 11:42:41;;;;;;;7.97;5.95;;;6.40;80.30;;;;;;5053058;28;20074;-70
2022/12/07 11:45:30;;;;;;;6.97;4.93;;;6.40;80.20;;;;;;5052569;28;20025;-69
2022/12/07 11:48:11;;;;;;;8.93;5.32;;;6.30;79.40;;;;;;5053134;28;20025;-69
2022/12/07 11:50:47;;;;;;;7.53;4.97;;;6.30;78.50;;;;;;5052974;28;20056;-68
2022/12/07 11:53:32;;;;;;;5.53;4.55;;;6.20;78.20;;;;;;5052480;28;20060;-70
2022/12/07 11:56:12;;;;;;;5.75;4.47;;;6.20;77.80;;;;;;5052714;28;20025;-69
2022/12/07 11:58:49;;;;;;;8.85;4.97;;;6.20;77.70;;;;;;5052914;28;20115;-70
2022/12/07 12:01:19;;;;;;;6.90;4.93;;;6.20;78.20;;;;;;5052350;28;20025;-70
2022/12/07 12:03:51;;;;;;;7.88;4.50;;;6.30;77.90;;;;;;5052636;28;20071;-70
2022/12/07 12:06:17;;;;;;;7.07;5.03;;;6.40;77.80;;;;;;5050628;28;20039;-70
2022/12/07 12:08:45;;;;;;;9.32;5.57;;;6.40;78.30;;;;;;5052169;28;20176;-70
2022/12/07 12:11:43;;;;;;;8.95;5.57;;;6.50;78.60;;;;;;5051625;28;20347;-70
2022/12/07 12:14:23;;;;;;;7.97;5.32;;;6.60;78.40;;;;;;5052189;28;20144;-70
2022/12/07 12:17:09;;;;;;;7.70;5.57;;;6.80;78.20;;;;;;5032718;28;20037;-70
2022/12/07 12:19:38;;;;;;;8.23;5.82;;;6.90;77.50;;;;;;5032842;28;20030;-70
2022/12/07 12:22:17;;;;;;;7.05;5.20;;;6.90;77.10;;;;;;5032694;28;20029;-69
2022/12/07 12:24:45;;;;;;;8.50;6.10;;;7.10;77.00;;;;;;5032901;28;20022;-69
2022/12/07 12:27:24;;;;;;;5.90;4.85;;;7.10;76.60;;;;;;5032104;28;20057;-70
2022/12/07 12:29:55;;;;;;;9.52;5.72;;;7.20;75.70;;;;;;5032601;28;20034;-69
2022/12/07 12:32:29;;;;;;;8.38;6.05;;;7.30;75.20;;;;;;5032195;28;20056;-70
2022/12/07 12:35:19;;;;;;;7.85;5.15;;;7.30;75.40;;;;;;5032613;28;20085;-70
2022/12/07 12:37:46;;;;;;;8.43;6.00;;;7.30;74.20;;;;;;5032702;28;20037;-69
2022/12/07 12:40:15;;;;;;;7.78;5.35;;;7.30;74.50;;;;;;5032987;28;20493;-69
2022/12/07 12:42:44;;;;;;;7.95;5.68;;;7.30;74.80;;;;;;5052175;28;20032;-70
2022/12/07 12:45:21;;;;;;;11.35;5.68;;;7.30;74.50;;;;;;5051818;28;20033;-70
2022/12/07 12:47:53;;;;;;;7.55;5.25;;;7.30;73.90;;;;;;5051583;28;20059;-70
2022/12/07 12:50:31;;;;;;;7.13;5.18;;;7.30;73.80;;;;;;5051817;28;20033;-70
2022/12/07 12:53:02;;;;;;;8.40;5.60;;;7.30;73.70;;;;;;5052403;28;20098;-70
2022/12/07 12:55:42;;;;;;;9.25;5.57;;;7.30;73.70;;;;;;5051996;28;20452;-69
2022/12/07 12:58:20;;;;;;;6.40;5.27;;;7.20;73.40;;;;;;5052513;28;20064;-70
2022/12/07 13:00:47;;;;;;;7.30;4.97;;;7.30;73.20;;;;;;5052155;28;20268;-70
2022/12/07 13:03:31;;;;;;;8.18;5.13;;;7.20;72.90;;;;;;5050495;28;20029;-70
2022/12/07 13:06:24;;;;;;;7.57;4.97;;;7.10;72.40;;;;;;5051951;28;20025;-70
2022/12/07 13:08:55;;;;;;;8.98;5.03;;;7.10;72.10;;;;;;5051782;28;20382;-70
2022/12/07 13:11:44;;;;;;;8.80;5.28;;;7.00;72.10;;;;;;5050546;28;20028;-71
2022/12/07 13:14:40;;;;;;;7.03;5.10;;;6.90;73.00;;;;;;5052158;28;20037;-69